Time;durP1;ratioP1;P1;durP2;ratioP2;P2;SDS_P1;SDS_P2;PMS_P1;PMS_P2;Temp;Humidity;BMP_temperature;BMP_pressure;BME280_temperature;BME280_humidity;BME280_pressure;Samples;Min_cycle;Max_cycle;Signal;HPM_P1;HPM_P2
2023/07/24 00:00:18;;;;;;;71.47;4.40;;;;;;;26.03;55.25;98653.69;7313380;19;130138;-42
2023/07/24 00:02:44;;;;;;;34.67;1.93;;;;;;;26.10;54.70;98667.75;7314365;19;130391;-42
2023/07/24 00:05:10;;;;;;;40.57;2.20;;;;;;;25.60;51.44;98671.31;7314552;19;128834;-37
2023/07/24 00:07:35;;;;;;;24.55;1.42;;;;;;;25.42;51.35;98656.97;7315104;19;130197;-41
2023/07/24 00:10:00;;;;;;;60.30;3.53;;;;;;;25.47;50.32;98665.09;7313869;19;130506;-42
2023/07/24 00:12:26;;;;;;;73.53;4.23;;;;;;;25.70;54.61;98665.75;7314367;19;128846;-42
2023/07/24 00:14:52;;;;;;;16.97;1.23;;;;;;;25.87;54.59;98661.84;7315042;19;129426;-39
2023/07/24 00:17:17;;;;;;;41.30;2.58;;;;;;;25.95;54.54;98660.91;7314363;19;130175;-41
2023/07/24 00:19:43;;;;;;;23.10;1.47;;;;;;;25.99;54.66;98655.06;7313807;19;130924;-42
2023/07/24 00:22:08;;;;;;;43.00;2.43;;;;;;;26.03;54.89;98656.31;7314351;19;129269;-42
2023/07/24 00:24:34;;;;;;;42.93;2.70;;;;;;;26.08;54.45;98659.22;7314293;19;128913;-39
2023/07/24 00:26:59;;;;;;;44.90;2.77;;;;;;;26.11;54.66;98652.75;7314168;19;131374;-41
2023/07/24 00:29:24;;;;;;;54.20;3.33;;;;;;;26.13;54.83;98650.75;7313074;19;129526;-40
2023/07/24 00:31:50;;;;;;;53.80;2.80;;;;;;;26.16;54.73;98648.56;7314167;19;128748;-39
2023/07/24 00:34:15;;;;;;;24.87;1.43;;;;;;;26.17;55.12;98639.63;7315482;19;130178;-38
2023/07/24 00:36:40;;;;;;;30.80;1.90;;;;;;;26.15;55.25;98644.28;7313387;19;130335;-43
2023/07/24 00:39:06;;;;;;;24.13;1.47;;;;;;;26.14;54.62;98637.38;7313227;19;129373;-38
2023/07/24 00:41:32;;;;;;;69.70;4.03;;;;;;;26.03;54.98;98613.38;7311908;19;129272;-41
2023/07/24 00:43:57;;;;;;;11.23;0.90;;;;;;;25.61;51.33;98635.28;7311760;19;129400;-43
2023/07/24 00:46:23;;;;;;;98.03;5.50;;;;;;;25.39;51.06;98607.31;7312903;19;129363;-40
2023/07/24 00:48:49;;;;;;;42.35;2.50;;;;;;;25.44;50.43;98624.19;7312813;19;129033;-41
2023/07/24 00:51:15;;;;;;;32.70;1.80;;;;;;;25.75;54.48;98638.84;7313779;19;130182;-40
2023/07/24 00:53:41;;;;;;;64.13;4.10;;;;;;;25.88;54.27;98626.63;7311647;19;130643;-40
2023/07/24 00:56:06;;;;;;;27.83;1.63;;;;;;;25.95;54.78;98638.00;7312248;19;129708;-41
2023/07/24 00:58:33;;;;;;;53.47;3.10;;;;;;;26.00;54.91;98630.34;7313069;19;129418;-38
2023/07/24 01:00:59;;;;;;;31.63;1.85;;;;;;;26.04;54.80;98634.25;7312834;19;130092;-39
2023/07/24 01:03:36;;;;;;;29.87;1.83;;;;;;;26.11;55.18;98624.59;7311941;19;129122;-40
2023/07/24 01:06:02;;;;;;;30.73;1.70;;;;;;;26.12;55.08;98623.59;7314156;19;132589;-40
2023/07/24 01:08:28;;;;;;;29.10;1.87;;;;;;;26.13;54.77;98622.56;7314931;19;130552;-42
2023/07/24 01:10:55;;;;;;;21.60;1.30;;;;;;;26.14;54.71;98632.13;7314692;19;129016;-41
2023/07/24 01:13:25;;;;;;;23.60;1.50;;;;;;;26.14;55.08;98631.28;7313132;19;130103;-41
2023/07/24 01:15:59;;;;;;;33.22;1.95;;;;;;;26.14;55.26;98620.75;7311256;19;130548;-40
2023/07/24 01:18:26;;;;;;;26.52;1.65;;;;;;;26.10;54.99;98620.31;7312259;19;129280;-40
2023/07/24 01:20:56;;;;;;;43.85;2.53;;;;;;;26.02;55.18;98617.84;7310400;19;128981;-38
2023/07/24 01:23:40;;;;;;;41.35;2.33;;;;;;;25.62;51.44;98632.47;7311327;19;129047;-41
2023/07/24 01:26:06;;;;;;;40.38;2.50;;;;;;;25.53;51.13;98627.53;7311722;19;131012;-41
2023/07/24 01:28:32;;;;;;;32.78;1.92;;;;;;;25.49;51.54;98627.06;7312160;19;130543;-39
2023/07/24 01:30:57;;;;;;;37.07;2.27;;;;;;;25.76;54.12;98625.50;7312067;19;129468;-41
2023/07/24 01:33:23;;;;;;;43.43;2.50;;;;;;;25.90;54.31;98614.06;7310800;19;129482;-42
2023/07/24 01:35:57;;;;;;;23.30;1.43;;;;;;;25.96;54.76;98602.78;7313309;19;130091;-40
2023/07/24 01:38:27;;;;;;;20.65;1.27;;;;;;;25.99;54.81;98607.66;7312810;19;132396;-40
2023/07/24 01:40:54;;;;;;;25.90;1.60;;;;;;;26.01;54.46;98595.16;7311021;19;128984;-41
2023/07/24 01:43:19;;;;;;;;;;;;;;;26.18;54.88;98601.72;7311294;19;129408;-40
2023/07/24 01:45:44;;;;;;;19.50;1.23;;;;;;;26.02;55.13;98582.75;7312782;19;129292;-42
2023/07/24 01:48:10;;;;;;;46.00;2.90;;;;;;;26.12;54.73;98597.25;7311003;19;131393;-39
2023/07/24 01:50:35;;;;;;;29.13;1.83;;;;;;;26.14;54.71;98599.69;7311104;19;129881;-40
2023/07/24 01:53:01;;;;;;;40.77;2.27;;;;;;;26.16;54.73;98597.66;7310700;19;130297;-41
2023/07/24 01:55:26;;;;;;;16.13;1.10;;;;;;;26.14;54.87;98595.22;7311866;19;131594;-40
2023/07/24 01:57:51;;;;;;;27.60;1.60;;;;;;;26.11;54.51;98579.81;7311419;19;129946;-43
2023/07/24 02:00:17;;;;;;;58.57;3.60;;;;;;;26.13;54.92;98592.78;7309773;19;129024;-39
2023/07/24 02:02:42;;;;;;;29.33;1.83;;;;;;;25.50;50.98;98572.63;7310607;19;129213;-41
2023/07/24 02:05:08;;;;;;;37.67;2.13;;;;;;;25.49;50.80;98592.03;7311037;19;130133;-39
2023/07/24 02:07:33;;;;;;;28.80;1.60;;;;;;;25.43;50.29;98582.28;7311231;19;129313;-39
2023/07/24 02:09:58;;;;;;;27.90;1.70;;;;;;;25.73;54.21;98580.31;7311078;19;129067;-40
2023/07/24 02:12:24;;;;;;;87.53;4.73;;;;;;;25.89;54.77;98588.72;7309687;19;129065;-42
2023/07/24 02:14:51;;;;;;;26.70;1.50;;;;;;;25.96;55.02;98586.97;7312109;19;130275;-41
2023/07/24 02:17:17;;;;;;;51.08;2.97;;;;;;;25.99;54.57;98580.50;7309571;19;130458;-41
2023/07/24 02:19:42;;;;;;;22.67;1.43;;;;;;;26.05;54.37;98587.69;7311134;19;129234;-38
2023/07/24 02:22:07;;;;;;;39.70;2.20;;;;;;;26.01;54.49;98574.06;7308314;19;128853;-40
2023/07/24 02:24:33;;;;;;;8.57;0.70;;;;;;;26.12;55.25;98585.88;7310378;19;129570;-40
2023/07/24 02:26:58;;;;;;;36.23;2.17;;;;;;;26.12;54.32;98584.06;7307053;19;129595;-41
2023/07/24 02:29:24;;;;;;;74.07;4.40;;;;;;;26.15;54.87;98585.47;7309649;19;129546;-40
2023/07/24 02:31:50;;;;;;;38.37;2.17;;;;;;;26.14;54.70;98584.69;7310907;19;128920;-40
2023/07/24 02:34:15;;;;;;;39.25;2.33;;;;;;;26.12;54.40;98570.88;7309872;19;129098;-41
2023/07/24 02:36:41;;;;;;;24.60;1.43;;;;;;;26.11;54.64;98574.53;7310445;19;129203;-40
2023/07/24 02:39:07;;;;;;;22.97;1.47;;;;;;;25.93;52.32;98587.34;7309672;19;129670;-39
2023/07/24 02:41:32;;;;;;;52.20;2.97;;;;;;;25.50;51.31;98576.06;7308576;19;129483;-42
2023/07/24 02:43:58;;;;;;;34.73;2.00;;;;;;;25.46;50.52;98590.63;7308043;19;129075;-42
2023/07/24 02:46:24;;;;;;;50.30;3.03;;;;;;;25.46;52.94;98592.41;7309692;19;130529;-37
2023/07/24 02:48:50;;;;;;;20.33;1.25;;;;;;;25.77;54.86;98587.63;7309417;19;128810;-42
2023/07/24 02:51:15;;;;;;;37.50;2.07;;;;;;;25.91;54.76;98593.81;7310355;19;130145;-41
2023/07/24 02:53:41;;;;;;;36.40;2.17;;;;;;;25.98;55.19;98590.19;7307007;19;129525;-40
2023/07/24 02:56:06;;;;;;;24.47;1.43;;;;;;;25.98;54.46;98574.41;7310578;19;130578;-40
2023/07/24 02:58:31;;;;;;;85.97;5.10;;;;;;;26.06;54.63;98576.94;7308534;19;131698;-38
2023/07/24 03:01:07;;;;;;;17.37;1.17;;;;;;;26.13;55.15;98579.63;7309527;19;128930;-42
2023/07/24 03:03:33;;;;;;;43.85;2.92;;;;;;;26.12;54.77;98575.34;7307743;19;130254;-39
2023/07/24 03:05:58;;;;;;;25.10;1.50;;;;;;;26.15;54.83;98574.94;7309072;19;129279;-38
2023/07/24 03:08:23;;;;;;;47.37;2.83;;;;;;;26.16;55.15;98579.22;7308920;19;129623;-40
2023/07/24 03:10:49;;;;;;;38.43;2.27;;;;;;;26.05;54.75;98559.50;7309929;19;130056;-39
2023/07/24 03:13:14;;;;;;;52.23;2.87;;;;;;;26.16;55.23;98576.59;7307080;19;130387;-38
2023/07/24 03:15:39;;;;;;;61.10;3.77;;;;;;;26.06;54.75;98563.78;7309528;19;130146;-41
2023/07/24 03:18:05;;;;;;;39.87;2.37;;;;;;;26.12;54.88;98581.44;7309639;19;128977;-39
2023/07/24 03:20:30;;;;;;;28.00;1.63;;;;;;;25.65;51.72;98584.69;7309242;19;129345;-41
2023/07/24 03:22:55;;;;;;;14.07;0.90;;;;;;;25.49;51.05;98577.06;7308166;19;130363;-40
2023/07/24 03:25:21;;;;;;;62.73;3.77;;;;;;;25.42;50.93;98580.66;7307740;19;130412;-41
2023/07/24 03:27:46;;;;;;;86.23;5.00;;;;;;;25.65;54.54;98573.38;7308803;19;129461;-43
2023/07/24 03:30:11;;;;;;;22.90;1.30;;;;;;;25.87;54.46;98574.13;7309681;19;128825;-40
2023/07/24 03:32:37;;;;;;;28.13;1.73;;;;;;;25.95;54.27;98572.16;7307629;19;130098;-43
2023/07/24 03:35:04;;;;;;;20.63;1.27;;;;;;;25.99;54.88;98576.03;7308617;19;131308;-38
2023/07/24 03:37:30;;;;;;;48.33;2.55;;;;;;;25.93;54.63;98555.75;7309004;19;129002;-36
2023/07/24 03:39:56;;;;;;;62.60;3.83;;;;;;;26.09;54.82;98570.47;7314351;19;130607;-30
2023/07/24 03:42:29;;;;;;;29.77;1.73;;;;;;;26.09;55.08;98560.75;7312700;19;129931;-32
2023/07/24 03:44:55;;;;;;;52.45;3.15;;;;;;;26.13;54.58;98567.25;7314710;19;131031;-40
2023/07/24 03:47:20;;;;;;;41.40;2.40;;;;;;;26.06;54.77;98550.59;7315576;19;130497;-35
2023/07/24 03:49:46;;;;;;;23.67;1.40;;;;;;;26.13;54.44;98554.06;7316336;19;128767;-35
2023/07/24 03:52:11;;;;;;;53.07;3.30;;;;;;;26.15;54.90;98565.22;7314009;19;129049;-35
2023/07/24 03:54:37;;;;;;;27.10;1.73;;;;;;;26.15;55.31;98557.31;7315200;19;129152;-34
2023/07/24 03:57:03;;;;;;;67.10;4.13;;;;;;;26.14;54.77;98553.06;7314297;19;129343;-46
2023/07/24 03:59:28;;;;;;;30.03;1.80;;;;;;;25.79;50.87;98553.19;7316346;19;129709;-35
2023/07/24 04:01:53;;;;;;;37.90;2.13;;;;;;;25.59;51.04;98542.53;7313038;19;129963;-35
2023/07/24 04:04:19;;;;;;;57.97;3.53;;;;;;;25.47;50.92;98539.59;7314496;19;130676;-33
2023/07/24 04:06:45;;;;;;;38.43;2.07;;;;;;;25.60;54.10;98539.69;7317477;19;129929;-38
2023/07/24 04:09:14;;;;;;;8.15;0.70;;;;;;;25.87;54.01;98526.72;7315491;19;129028;-31
2023/07/24 04:11:40;;;;;;;33.10;1.85;;;;;;;25.97;54.06;98520.09;7315184;19;129892;-37
2023/07/24 04:14:05;;;;;;;30.70;1.73;;;;;;;26.02;54.29;98520.38;7315850;19;129649;-33
2023/07/24 04:16:30;;;;;;;56.77;3.23;;;;;;;26.06;54.67;98524.25;7315733;19;130334;-35
2023/07/24 04:18:56;;;;;;;27.37;1.70;;;;;;;26.10;54.61;98512.31;7314947;19;129359;-41
2023/07/24 04:21:22;;;;;;;23.97;1.67;;;;;;;26.07;54.70;98506.59;7313224;19;129917;-37
2023/07/24 04:23:47;;;;;;;38.38;2.13;;;;;;;26.13;54.55;98522.44;7312706;19;130928;-34
2023/07/24 04:26:13;;;;;;;39.37;2.33;;;;;;;26.13;54.34;98519.81;7314835;19;129056;-36
2023/07/24 04:28:38;;;;;;;48.13;3.07;;;;;;;26.14;55.14;98516.19;7312881;19;129291;-36
2023/07/24 04:31:03;;;;;;;29.03;1.80;;;;;;;26.13;54.63;98506.63;7313883;19;130125;-35
2023/07/24 04:33:29;;;;;;;36.87;2.07;;;;;;;26.14;54.94;98518.00;7311998;19;129280;-34
2023/07/24 04:35:55;;;;;;;39.73;2.20;;;;;;;26.12;55.19;98523.47;7314079;19;129110;-39
2023/07/24 04:38:21;;;;;;;21.15;1.48;;;;;;;25.86;52.25;98523.28;7313206;19;128985;-33
2023/07/24 04:40:46;;;;;;;59.47;3.70;;;;;;;25.51;51.40;98514.53;7311585;19;129512;-34
2023/07/24 04:43:11;;;;;;;30.63;1.77;;;;;;;25.54;51.33;98518.59;7312893;19;130296;-33
2023/07/24 04:45:37;;;;;;;29.27;1.83;;;;;;;25.55;53.00;98525.50;7314919;19;129819;-38
2023/07/24 04:48:02;;;;;;;49.40;3.00;;;;;;;25.82;54.67;98519.41;7312379;19;128952;-30
2023/07/24 04:50:28;;;;;;;25.97;1.60;;;;;;;25.97;53.95;98514.00;7311215;19;129312;-35
2023/07/24 04:52:53;;;;;;;60.83;3.67;;;;;;;26.01;54.22;98516.13;7309600;19;129574;-35
2023/07/24 04:55:18;;;;;;;25.53;1.60;;;;;;;26.05;54.66;98512.06;7314538;19;129604;-34
2023/07/24 04:57:44;;;;;;;34.00;1.87;;;;;;;26.09;54.10;98518.59;7312875;19;128844;-35
2023/07/24 05:00:10;;;;;;;50.70;3.03;;;;;;;26.07;54.53;98504.78;7311776;19;129465;-32
2023/07/24 05:02:35;;;;;;;37.45;2.08;;;;;;;26.15;54.13;98509.06;7310847;19;129290;-37
2023/07/24 05:05:00;;;;;;;27.37;1.60;;;;;;;26.14;54.25;98510.91;7314562;19;130774;-32
2023/07/24 05:07:26;;;;;;;31.30;1.97;;;;;;;26.11;54.63;98500.78;7312634;19;129497;-32
2023/07/24 05:09:51;;;;;;;54.47;3.00;;;;;;;26.13;54.56;98504.00;7313064;19;131174;-38
2023/07/24 05:12:16;;;;;;;68.17;3.97;;;;;;;26.13;55.23;98498.75;7311501;19;129277;-36
2023/07/24 05:14:42;;;;;;;36.53;2.07;;;;;;;26.04;55.20;98489.38;7313893;19;129985;-32
2023/07/24 05:17:07;;;;;;;56.93;3.57;;;;;;;26.11;54.80;98495.50;7312578;19;129672;-34
2023/07/24 05:19:32;;;;;;;65.40;3.80;;;;;;;25.71;51.21;98488.34;7311598;19;128982;-35
2023/07/24 05:21:59;;;;;;;71.27;4.23;;;;;;;25.52;50.72;98487.19;7309901;19;129313;-40
2023/07/24 05:24:24;;;;;;;32.22;2.00;;;;;;;25.47;50.76;98484.31;7313107;19;129030;-36
2023/07/24 05:26:49;;;;;;;28.40;1.73;;;;;;;25.71;54.32;98472.56;7312932;19;129063;-37
2023/07/24 05:29:15;;;;;;;29.27;1.67;;;;;;;25.92;54.41;98484.81;7312106;19;129117;-34
2023/07/24 05:31:40;;;;;;;66.33;3.97;;;;;;;26.00;54.54;98488.09;7313633;19;130385;-37
2023/07/24 05:34:05;;;;;;;28.33;1.63;;;;;;;26.04;54.60;98480.66;7313731;19;129219;-31
2023/07/24 05:36:31;;;;;;;27.23;1.67;;;;;;;26.06;54.71;98487.38;7312873;19;129182;-32
2023/07/24 05:38:57;;;;;;;62.03;3.43;;;;;;;26.09;54.44;98489.63;7311911;19;130291;-39
2023/07/24 05:41:23;;;;;;;28.63;1.65;;;;;;;26.10;54.96;98488.59;7311778;19;131335;-33
2023/07/24 05:43:48;;;;;;;61.70;3.70;;;;;;;26.11;54.70;98484.16;7308383;19;129505;-39
2023/07/24 05:46:14;;;;;;;26.00;1.60;;;;;;;26.12;54.86;98475.22;7311810;19;129110;-32
2023/07/24 05:48:39;;;;;;;41.30;2.37;;;;;;;26.12;54.71;98476.03;7311239;19;128959;-33
2023/07/24 05:51:04;;;;;;;25.47;1.70;;;;;;;26.09;54.49;98471.19;7309966;19;129480;-36
2023/07/24 05:53:30;;;;;;;44.50;2.67;;;;;;;26.11;55.02;98484.16;7308872;19;129915;-35
2023/07/24 05:55:59;;;;;;;52.33;3.17;;;;;;;26.03;55.48;98471.94;7310528;19;129921;-37
2023/07/24 05:58:25;;;;;;;39.30;2.15;;;;;;;25.78;51.23;98477.84;7311117;19;130723;-35
2023/07/24 06:00:51;;;;;;;30.00;1.73;;;;;;;25.55;50.84;98478.13;7311459;19;129724;-38
2023/07/24 06:03:16;;;;;;;45.50;2.63;;;;;;;25.44;51.09;98486.53;7310071;19;129883;-30
2023/07/24 06:05:41;;;;;;;38.40;2.10;;;;;;;25.63;53.99;98491.13;7312462;19;129723;-37
2023/07/24 06:08:08;;;;;;;79.37;4.83;;;;;;;25.87;54.16;98482.78;7310776;19;130584;-36
2023/07/24 06:10:33;;;;;;;;;;;;;;;25.98;54.08;98463.78;7313284;19;131075;-32
2023/07/24 06:12:59;;;;;;;13.63;0.98;;;;;;;26.04;54.25;98483.28;7310492;19;129060;-38
2023/07/24 06:15:24;;;;;;;48.40;2.93;;;;;;;25.99;54.33;98467.22;7310154;19;128879;-35
2023/07/24 06:17:50;;;;;;;33.67;1.97;;;;;;;26.09;54.40;98478.25;7311546;19;129143;-32
2023/07/24 06:20:15;;;;;;;51.03;3.20;;;;;;;26.10;54.71;98477.25;7310010;19;130517;-38
2023/07/24 06:22:40;;;;;;;21.37;1.33;;;;;;;26.10;54.79;98475.41;7308960;19;129017;-33
2023/07/24 06:25:06;;;;;;;46.60;2.57;;;;;;;26.12;54.69;98480.50;7310398;19;129444;-36
2023/07/24 06:27:31;;;;;;;45.23;2.67;;;;;;;26.11;54.61;98478.88;7309862;19;130868;-38
2023/07/24 06:29:57;;;;;;;27.87;1.60;;;;;;;26.14;54.80;98479.31;7310954;19;130296;-33
2023/07/24 06:32:22;;;;;;;55.17;3.17;;;;;;;26.15;55.18;98480.91;7309200;19;128961;-37
2023/07/24 06:34:48;;;;;;;43.63;2.37;;;;;;;26.14;54.76;98479.31;7311297;19;129163;-36
2023/07/24 06:37:13;;;;;;;45.93;2.87;;;;;;;25.71;51.33;98483.09;7311209;19;129695;-34
2023/07/24 06:39:38;;;;;;;40.40;2.43;;;;;;;25.52;50.79;98473.22;7309426;19;129280;-37
2023/07/24 06:42:04;;;;;;;14.67;1.00;;;;;;;25.50;50.12;98480.50;7308692;19;129064;-35
2023/07/24 06:44:29;;;;;;;80.50;4.73;;;;;;;25.61;53.78;98464.19;7310444;19;129269;-37
2023/07/24 06:46:55;;;;;;;25.33;1.47;;;;;;;25.92;54.74;98480.38;7311745;19;128924;-31
2023/07/24 06:49:20;;;;;;;24.67;1.60;;;;;;;26.02;54.64;98480.84;7308943;19;130252;-35
2023/07/24 06:51:46;;;;;;;34.20;1.93;;;;;;;26.05;54.04;98474.41;7309693;19;129369;-32
2023/07/24 06:54:11;;;;;;;39.40;2.17;;;;;;;26.08;54.29;98480.06;7311117;19;129005;-35
2023/07/24 06:56:36;;;;;;;45.40;3.03;;;;;;;26.12;54.47;98470.78;7310238;19;130102;-36
2023/07/24 06:59:02;;;;;;;28.03;1.73;;;;;;;26.12;54.95;98472.59;7309647;19;129519;-34
2023/07/24 07:01:27;;;;;;;33.33;1.90;;;;;;;26.13;54.81;98471.59;7310049;19;130378;-31
2023/07/24 07:03:52;;;;;;;33.23;1.90;;;;;;;26.13;54.76;98477.66;7308505;19;129833;-37
2023/07/24 07:06:18;;;;;;;45.67;2.47;;;;;;;26.13;55.08;98467.13;7310625;19;129027;-34
2023/07/24 07:08:43;;;;;;;61.13;3.60;;;;;;;26.15;55.07;98467.75;7308027;19;130620;-35
2023/07/24 07:11:08;;;;;;;42.47;2.37;;;;;;;26.14;54.42;98468.75;7310653;19;129884;-39
2023/07/24 07:13:34;;;;;;;13.13;0.80;;;;;;;26.14;54.75;98471.41;7310246;19;130214;-32
2023/07/24 07:15:59;;;;;;;24.60;1.53;;;;;;;25.92;51.67;98475.09;7314384;19;129716;-36
2023/07/24 07:18:25;;;;;;;29.60;1.73;;;;;;;25.62;51.03;98457.91;7316133;19;130365;-41
2023/07/24 07:20:52;;;;;;;70.17;4.23;;;;;;;25.53;50.67;98473.06;7315756;19;129342;-34
2023/07/24 07:23:18;;;;;;;13.25;0.82;;;;;;;25.60;53.94;98470.47;7315385;19;129529;-37
2023/07/24 07:25:47;;;;;;;24.13;1.40;;;;;;;25.79;54.33;98445.25;7316922;19;129886;-42
2023/07/24 07:28:14;;;;;;;31.10;1.95;;;;;;;25.99;54.71;98460.16;7315262;19;130841;-32
2023/07/24 07:30:40;;;;;;;41.95;2.42;;;;;;;26.03;54.78;98456.13;7316571;19;129541;-37
2023/07/24 07:33:05;;;;;;;46.57;2.77;;;;;;;26.06;54.58;98461.03;7315241;19;128984;-41
2023/07/24 07:35:34;;;;;;;28.10;1.60;;;;;;;26.09;54.26;98452.72;7316704;19;129735;-36
2023/07/24 07:38:00;;;;;;;25.90;1.70;;;;;;;26.09;54.20;98450.09;7314460;19;129942;-34
2023/07/24 07:40:26;;;;;;;44.97;2.47;;;;;;;26.10;54.67;98445.66;7316473;19;132163;-43
2023/07/24 07:42:52;;;;;;;;;;;;;;;26.20;54.83;98439.00;7315052;19;130101;-39
2023/07/24 07:45:17;;;;;;;61.60;3.55;;;;;;;26.14;54.92;98437.16;7313649;19;129179;-35
2023/07/24 07:47:43;;;;;;;26.17;1.50;;;;;;;26.13;55.24;98440.78;7314977;19;130918;-33
2023/07/24 07:50:08;;;;;;;72.93;4.17;;;;;;;26.14;54.81;98441.59;7314647;19;128867;-33
2023/07/24 07:52:34;;;;;;;26.60;1.50;;;;;;;26.14;55.08;98441.59;7313083;19;129260;-38
2023/07/24 07:54:59;;;;;;;22.77;1.40;;;;;;;25.76;50.66;98438.56;7314951;19;129466;-39
2023/07/24 07:57:25;;;;;;;59.63;3.33;;;;;;;25.55;51.41;98441.28;7313027;19;129194;-33
2023/07/24 07:59:50;;;;;;;43.77;2.43;;;;;;;25.46;50.89;98421.34;7315389;19;129277;-36
2023/07/24 08:02:15;;;;;;;44.20;2.67;;;;;;;25.63;53.45;98417.41;7313404;19;129004;-32
2023/07/24 08:04:41;;;;;;;24.67;1.47;;;;;;;25.88;54.20;98405.41;7315187;19;129413;-27
2023/07/24 08:07:06;;;;;;;89.03;4.97;;;;;;;26.00;53.99;98401.19;7314215;19;129118;-40
2023/07/24 08:09:32;;;;;;;41.70;2.33;;;;;;;26.04;54.46;98410.34;7314120;19;128818;-35
2023/07/24 08:11:58;;;;;;;36.60;1.97;;;;;;;26.07;54.19;98401.25;7314882;19;129470;-35
2023/07/24 08:14:23;;;;;;;60.77;3.77;;;;;;;26.10;54.66;98393.75;7313729;19;129953;-33
2023/07/24 08:16:49;;;;;;;45.33;2.53;;;;;;;26.03;54.39;98381.59;7313979;19;129234;-36
2023/07/24 08:19:14;;;;;;;23.83;1.50;;;;;;;26.12;54.58;98397.00;7315203;19;129422;-38
2023/07/24 08:21:40;;;;;;;25.67;1.53;;;;;;;26.13;55.08;98397.84;7313895;19;129013;-34
2023/07/24 08:24:05;;;;;;;23.40;1.40;;;;;;;26.10;55.07;98399.03;7312552;19;129556;-33
2023/07/24 08:26:31;;;;;;;83.47;4.87;;;;;;;26.13;55.20;98392.56;7313537;19;130371;-35
2023/07/24 08:28:56;;;;;;;26.27;1.47;;;;;;;26.14;55.18;98388.91;7314621;19;129197;-32
2023/07/24 08:31:21;;;;;;;23.17;1.47;;;;;;;26.14;54.83;98384.47;7313335;19;130575;-32
2023/07/24 08:33:47;;;;;;;27.57;1.60;;;;;;;25.73;51.06;98387.09;7310995;19;130060;-37
2023/07/24 08:36:12;;;;;;;46.03;2.40;;;;;;;25.54;51.35;98379.91;7314334;19;129634;-34
2023/07/24 08:38:38;;;;;;;64.57;3.80;;;;;;;25.48;50.50;98371.97;7313706;19;129143;-34
2023/07/24 08:41:10;;;;;;;32.87;1.97;;;;;;;25.66;54.50;98369.66;7313791;19;128832;-33
2023/07/24 08:43:36;;;;;;;58.60;3.42;;;;;;;25.82;54.58;98358.78;7311651;19;129899;-40
2023/07/24 08:46:04;;;;;;;40.58;2.17;;;;;;;26.00;54.81;98372.22;7315190;19;130183;-38
2023/07/24 08:48:33;;;;;;;25.40;1.50;;;;;;;26.04;54.95;98362.13;7315162;19;129278;-34
2023/07/24 08:50:59;;;;;;;31.73;1.98;;;;;;;26.05;54.76;98356.66;7313580;19;129668;-33
2023/07/24 08:53:25;;;;;;;;;;;;;;;26.18;54.43;98354.06;7311828;19;129283;-35
2023/07/24 08:55:52;;;;;;;64.47;3.78;;;;;;;26.11;55.05;98352.44;7312976;19;129257;-35
2023/07/24 08:58:17;;;;;;;31.40;1.85;;;;;;;26.11;54.42;98352.44;7313669;19;128935;-39
2023/07/24 09:00:43;;;;;;;61.57;3.80;;;;;;;26.09;54.48;98350.00;7312036;19;128985;-33
2023/07/24 09:03:08;;;;;;;23.53;1.60;;;;;;;26.12;54.29;98340.88;7311387;19;129373;-34
2023/07/24 09:05:34;;;;;;;45.07;2.47;;;;;;;26.11;54.46;98347.97;7313304;19;129131;-41
2023/07/24 09:07:59;;;;;;;39.73;2.50;;;;;;;26.08;54.76;98332.53;7314117;19;129932;-36
2023/07/24 09:10:26;;;;;;;26.80;1.57;;;;;;;26.07;54.53;98330.94;7313407;19;130260;-33
2023/07/24 09:12:51;;;;;;;87.70;4.90;;;;;;;25.85;51.50;98339.16;7310106;19;130324;-32
2023/07/24 09:15:17;;;;;;;41.50;2.30;;;;;;;25.56;51.54;98358.66;7313648;19;129528;-34
2023/07/24 09:17:52;;;;;;;20.67;1.33;;;;;;;25.54;52.36;98358.03;7313344;19;129225;-43
2023/07/24 09:20:19;;;;;;;25.63;1.55;;;;;;;25.55;52.87;98352.56;7313976;19;130536;-35
2023/07/24 09:22:54;;;;;;;22.27;1.30;;;;;;;25.83;54.75;98341.97;7311152;19;129740;-40
2023/07/24 09:25:30;;;;;;;37.45;2.13;;;;;;;25.99;54.59;98353.97;7313982;19;130396;-35
2023/07/24 09:27:57;;;;;;;79.53;4.60;;;;;;;26.04;54.69;98347.16;7311499;19;130659;-35
2023/07/24 09:30:23;;;;;;;10.98;0.85;;;;;;;26.06;54.85;98339.84;7313481;19;130381;-35
2023/07/24 09:32:55;;;;;;;33.17;2.00;;;;;;;26.10;54.51;98343.72;7311309;19;130658;-41
2023/07/24 09:35:28;;;;;;;27.17;1.75;;;;;;;26.09;54.80;98339.47;7312516;19;130651;-35
2023/07/24 09:38:03;;;;;;;56.83;3.28;;;;;;;26.12;54.93;98339.06;7310212;19;129321;-35
2023/07/24 09:40:38;;;;;;;45.55;2.53;;;;;;;26.13;55.12;98340.66;7313135;19;131111;-33
2023/07/24 09:43:13;;;;;;;50.42;3.17;;;;;;;26.11;54.81;98345.34;7309415;19;129386;-35
2023/07/24 09:45:38;;;;;;;21.75;1.38;;;;;;;26.12;54.76;98341.69;7313223;19;130234;-33
2023/07/24 09:48:06;;;;;;;66.00;4.00;;;;;;;26.13;55.24;98353.06;7311080;19;130505;-31
2023/07/24 09:50:31;;;;;;;37.05;2.13;;;;;;;26.11;54.81;98345.34;7312031;19;128808;-33
2023/07/24 09:52:58;;;;;;;62.60;3.47;;;;;;;25.70;51.77;98318.25;7310444;19;130486;-34
2023/07/24 09:55:29;;;;;;;;;;;;;;;25.56;50.96;98343.69;7313628;19;129770;-34
2023/07/24 09:57:56;;;;;;;25.25;1.45;;;;;;;25.48;50.37;98340.41;7310303;19;129016;-46
2023/07/24 10:00:21;;;;;;;;;;;;;;;25.67;54.46;98344.94;7312235;19;130248;-34
2023/07/24 10:02:47;;;;;;;42.17;2.27;;;;;;;25.87;54.54;98335.28;7310480;19;129730;-34
2023/07/24 10:05:13;;;;;;;60.40;3.47;;;;;;;25.96;54.47;98339.38;7311979;19;130273;-34
2023/07/24 10:07:39;;;;;;;17.35;1.27;;;;;;;26.03;54.26;98336.81;7311762;19;129149;-30
2023/07/24 10:10:05;;;;;;;53.60;3.23;;;;;;;26.07;54.94;98330.94;7310828;19;129357;-34
2023/07/24 10:12:32;;;;;;;32.65;1.83;;;;;;;26.08;54.59;98327.28;7310307;19;130720;-36
2023/07/24 10:14:58;;;;;;;28.33;1.75;;;;;;;26.10;54.54;98325.25;7313107;19;131073;-40
2023/07/24 10:17:35;;;;;;;17.33;1.15;;;;;;;26.13;54.97;98324.06;7310635;19;128925;-39
2023/07/24 10:20:05;;;;;;;;;;;;;;;26.20;54.42;98320.41;7311882;19;130351;-38
2023/07/24 10:22:30;;;;;;;25.48;1.67;;;;;;;26.13;54.63;98329.34;7310400;19;129262;-37
2023/07/24 10:24:56;;;;;;;35.23;2.00;;;;;;;26.14;54.61;98318.59;7312690;19;130744;-40
2023/07/24 10:27:25;;;;;;;37.25;2.25;;;;;;;26.14;54.54;98317.78;7311559;19;129931;-38
2023/07/24 10:30:00;;;;;;;25.83;1.50;;;;;;;26.15;55.00;98314.94;7311649;19;129270;-35
2023/07/24 10:32:26;;;;;;;57.28;3.50;;;;;;;25.70;51.11;98319.03;7308863;19;129686;-32
2023/07/24 10:35:09;;;;;;;51.00;2.77;;;;;;;25.50;51.45;98318.13;7310602;19;129839;-36
2023/07/24 10:37:37;;;;;;;30.73;1.88;;;;;;;25.38;50.84;98306.56;7310600;19;129215;-40
2023/07/24 10:40:04;;;;;;;28.42;1.58;;;;;;;25.78;54.23;98320.69;7311315;19;128968;-39
2023/07/24 10:42:30;;;;;;;33.22;2.00;;;;;;;25.94;54.25;98325.59;7308330;19;131414;-36
2023/07/24 10:45:06;;;;;;;35.90;2.03;;;;;;;26.05;54.21;98326.91;7309424;19;131078;-39
2023/07/24 10:47:32;;;;;;;59.25;3.33;;;;;;;26.06;54.53;98328.50;7310103;19;129941;-38
2023/07/24 10:49:57;;;;;;;32.37;1.87;;;;;;;26.08;54.11;98337.81;7316682;19;128905;-37
2023/07/24 10:52:33;;;;;;;50.60;3.13;;;;;;;26.11;54.90;98331.34;7315591;19;130260;-40
2023/07/24 10:55:03;;;;;;;28.55;1.55;;;;;;;26.11;54.73;98332.19;7317226;19;130472;-35
2023/07/24 10:57:31;;;;;;;44.15;2.67;;;;;;;26.12;55.25;98332.97;7316592;19;130411;-38
2023/07/24 10:59:58;;;;;;;42.25;2.35;;;;;;;26.12;54.68;98341.69;7317464;19;129225;-38
2023/07/24 11:02:24;;;;;;;47.83;2.83;;;;;;;26.13;54.94;98338.03;7315467;19;129557;-40
2023/07/24 11:04:49;;;;;;;32.57;1.97;;;;;;;26.14;54.28;98341.50;7317264;19;130358;-41
2023/07/24 11:07:15;;;;;;;34.43;2.03;;;;;;;26.13;54.73;98330.13;7316492;19;128937;-38
2023/07/24 11:09:41;;;;;;;41.40;2.57;;;;;;;26.13;54.69;98319.59;7316672;19;129384;-39
2023/07/24 11:12:11;;;;;;;28.77;1.50;;;;;;;25.69;50.99;98322.69;7317095;19;130332;-39
2023/07/24 11:14:54;;;;;;;76.88;4.40;;;;;;;25.57;51.45;98315.53;7315917;19;129250;-37